sensor_id;sensor_type;location;lat;lon;timestamp;P1;durP1;ratioP1;P2;durP2;ratioP2
58017;SDS011;43810;50.860;19.226;2023-09-08T00:02:25;19.40;;;11.07;;
58017;SDS011;43810;50.860;19.226;2023-09-08T00:04:51;18.48;;;10.75;;
58017;SDS011;43810;50.860;19.226;2023-09-08T00:07:17;19.45;;;10.93;;
58017;SDS011;43810;50.860;19.226;2023-09-08T00:09:43;18.88;;;11.48;;
58017;SDS011;43810;50.860;19.226;2023-09-08T00:12:09;15.95;;;10.15;;
58017;SDS011;43810;50.860;19.226;2023-09-08T00:14:35;17.08;;;10.90;;
58017;SDS011;43810;50.860;19.226;2023-09-08T00:17:00;19.20;;;11.88;;
58017;SDS011;43810;50.860;19.226;2023-09-08T00:19:26;16.58;;;10.55;;
58017;SDS011;43810;50.860;19.226;2023-09-08T00:21:52;16.90;;;10.20;;
58017;SDS011;43810;50.860;19.226;2023-09-08T00:24:18;19.98;;;11.48;;
58017;SDS011;43810;50.860;19.226;2023-09-08T00:26:45;18.55;;;10.70;;
58017;SDS011;43810;50.860;19.226;2023-09-08T00:29:11;14.80;;;9.68;;
58017;SDS011;43810;50.860;19.226;2023-09-08T00:31:36;19.00;;;10.65;;
58017;SDS011;43810;50.860;19.226;2023-09-08T00:34:02;16.70;;;9.65;;
58017;SDS011;43810;50.860;19.226;2023-09-08T00:36:28;16.17;;;9.82;;
58017;SDS011;43810;50.860;19.226;2023-09-08T00:38:54;20.17;;;10.93;;
58017;SDS011;43810;50.860;19.226;2023-09-08T00:41:20;16.58;;;10.40;;
58017;SDS011;43810;50.860;19.226;2023-09-08T00:43:46;16.00;;;10.13;;
58017;SDS011;43810;50.860;19.226;2023-09-08T00:46:11;18.17;;;11.52;;
58017;SDS011;43810;50.860;19.226;2023-09-08T00:48:38;16.15;;;10.18;;
58017;SDS011;43810;50.860;19.226;2023-09-08T00:51:03;17.15;;;11.32;;
58017;SDS011;43810;50.860;19.226;2023-09-08T00:53:33;16.38;;;10.20;;
58017;SDS011;43810;50.860;19.226;2023-09-08T00:55:59;15.82;;;9.65;;
58017;SDS011;43810;50.860;19.226;2023-09-08T00:58:25;16.58;;;10.88;;
58017;SDS011;43810;50.860;19.226;2023-09-08T01:00:51;18.45;;;11.43;;
58017;SDS011;43810;50.860;19.226;2023-09-08T01:03:17;21.90;;;11.77;;
58017;SDS011;43810;50.860;19.226;2023-09-08T01:05:43;17.45;;;10.57;;
58017;SDS011;43810;50.860;19.226;2023-09-08T01:08:12;16.45;;;10.50;;
58017;SDS011;43810;50.860;19.226;2023-09-08T01:10:39;17.75;;;10.32;;
58017;SDS011;43810;50.860;19.226;2023-09-08T01:13:07;20.50;;;11.10;;
58017;SDS011;43810;50.860;19.226;2023-09-08T01:15:33;21.13;;;12.18;;
58017;SDS011;43810;50.860;19.226;2023-09-08T01:18:00;16.23;;;10.70;;
58017;SDS011;43810;50.860;19.226;2023-09-08T01:20:27;16.60;;;10.90;;
58017;SDS011;43810;50.860;19.226;2023-09-08T01:26:07;18.15;;;11.35;;
58017;SDS011;43810;50.860;19.226;2023-09-08T01:28:35;18.95;;;12.30;;
58017;SDS011;43810;50.860;19.226;2023-09-08T01:31:02;20.13;;;11.52;;
58017;SDS011;43810;50.860;19.226;2023-09-08T01:33:28;21.38;;;11.90;;
58017;SDS011;43810;50.860;19.226;2023-09-08T01:35:54;19.88;;;12.65;;
58017;SDS011;43810;50.860;19.226;2023-09-08T01:38:21;24.25;;;12.75;;
58017;SDS011;43810;50.860;19.226;2023-09-08T01:40:47;21.00;;;12.80;;
58017;SDS011;43810;50.860;19.226;2023-09-08T01:43:13;21.17;;;12.35;;
58017;SDS011;43810;50.860;19.226;2023-09-08T01:45:38;18.73;;;12.13;;
58017;SDS011;43810;50.860;19.226;2023-09-08T01:48:05;20.20;;;12.23;;
58017;SDS011;43810;50.860;19.226;2023-09-08T01:50:30;18.42;;;11.52;;
58017;SDS011;43810;50.860;19.226;2023-09-08T01:52:56;22.67;;;12.93;;
58017;SDS011;43810;50.860;19.226;2023-09-08T01:55:22;19.52;;;11.90;;
58017;SDS011;43810;50.860;19.226;2023-09-08T01:57:48;19.55;;;11.93;;
58017;SDS011;43810;50.860;19.226;2023-09-08T02:00:14;19.73;;;11.80;;
58017;SDS011;43810;50.860;19.226;2023-09-08T02:02:40;23.55;;;12.73;;
58017;SDS011;43810;50.860;19.226;2023-09-08T02:05:06;17.77;;;11.98;;
58017;SDS011;43810;50.860;19.226;2023-09-08T02:07:33;18.33;;;11.68;;
58017;SDS011;43810;50.860;19.226;2023-09-08T02:09:59;21.35;;;11.40;;
58017;SDS011;43810;50.860;19.226;2023-09-08T02:12:25;22.23;;;12.13;;
58017;SDS011;43810;50.860;19.226;2023-09-08T02:14:51;20.90;;;12.38;;
58017;SDS011;43810;50.860;19.226;2023-09-08T02:17:17;22.08;;;11.75;;
58017;SDS011;43810;50.860;19.226;2023-09-08T02:19:43;21.30;;;12.38;;
58017;SDS011;43810;50.860;19.226;2023-09-08T02:22:09;20.30;;;13.23;;
58017;SDS011;43810;50.860;19.226;2023-09-08T02:24:35;18.10;;;12.85;;
58017;SDS011;43810;50.860;19.226;2023-09-08T02:27:01;20.77;;;11.98;;
58017;SDS011;43810;50.860;19.226;2023-09-08T02:29:26;23.50;;;12.60;;
58017;SDS011;43810;50.860;19.226;2023-09-08T02:31:52;19.75;;;11.70;;
58017;SDS011;43810;50.860;19.226;2023-09-08T02:34:18;19.42;;;12.77;;
58017;SDS011;43810;50.860;19.226;2023-09-08T02:36:44;18.17;;;11.43;;
58017;SDS011;43810;50.860;19.226;2023-09-08T02:39:12;20.85;;;12.38;;
58017;SDS011;43810;50.860;19.226;2023-09-08T02:41:40;18.67;;;11.90;;
58017;SDS011;43810;50.860;19.226;2023-09-08T02:44:06;20.55;;;12.50;;
58017;SDS011;43810;50.860;19.226;2023-09-08T02:46:32;23.08;;;13.48;;
58017;SDS011;43810;50.860;19.226;2023-09-08T02:48:58;22.75;;;12.95;;
58017;SDS011;43810;50.860;19.226;2023-09-08T02:51:24;19.00;;;12.18;;
58017;SDS011;43810;50.860;19.226;2023-09-08T02:53:49;19.08;;;12.73;;
58017;SDS011;43810;50.860;19.226;2023-09-08T02:56:15;23.10;;;14.75;;
58017;SDS011;43810;50.860;19.226;2023-09-08T02:58:41;21.98;;;12.45;;
58017;SDS011;43810;50.860;19.226;2023-09-08T03:01:11;19.15;;;12.50;;
58017;SDS011;43810;50.860;19.226;2023-09-08T03:03:40;24.58;;;13.18;;
58017;SDS011;43810;50.860;19.226;2023-09-08T03:06:07;23.40;;;12.80;;
58017;SDS011;43810;50.860;19.226;2023-09-08T03:08:32;19.35;;;12.43;;
58017;SDS011;43810;50.860;19.226;2023-09-08T03:10:58;20.90;;;12.35;;
58017;SDS011;43810;50.860;19.226;2023-09-08T03:13:24;19.08;;;11.77;;
58017;SDS011;43810;50.860;19.226;2023-09-08T03:15:52;21.38;;;12.73;;
58017;SDS011;43810;50.860;19.226;2023-09-08T03:18:18;19.95;;;12.70;;
58017;SDS011;43810;50.860;19.226;2023-09-08T03:20:47;19.25;;;11.55;;
58017;SDS011;43810;50.860;19.226;2023-09-08T03:23:16;20.50;;;12.50;;
58017;SDS011;43810;50.860;19.226;2023-09-08T03:25:43;20.92;;;12.63;;
58017;SDS011;43810;50.860;19.226;2023-09-08T03:28:09;20.65;;;11.50;;
58017;SDS011;43810;50.860;19.226;2023-09-08T03:30:35;21.88;;;12.88;;
58017;SDS011;43810;50.860;19.226;2023-09-08T03:33:00;26.90;;;14.05;;
58017;SDS011;43810;50.860;19.226;2023-09-08T03:35:26;19.73;;;12.35;;
58017;SDS011;43810;50.860;19.226;2023-09-08T03:37:52;22.85;;;13.80;;
58017;SDS011;43810;50.860;19.226;2023-09-08T03:40:18;26.40;;;14.70;;
58017;SDS011;43810;50.860;19.226;2023-09-08T03:42:44;23.23;;;13.20;;
58017;SDS011;43810;50.860;19.226;2023-09-08T03:45:10;22.65;;;12.63;;
58017;SDS011;43810;50.860;19.226;2023-09-08T03:47:35;23.70;;;13.43;;
58017;SDS011;43810;50.860;19.226;2023-09-08T03:50:01;22.88;;;13.43;;
58017;SDS011;43810;50.860;19.226;2023-09-08T03:52:27;23.80;;;13.23;;
58017;SDS011;43810;50.860;19.226;2023-09-08T03:54:53;19.95;;;12.18;;
58017;SDS011;43810;50.860;19.226;2023-09-08T03:57:19;24.40;;;13.65;;
58017;SDS011;43810;50.860;19.226;2023-09-08T03:59:45;21.17;;;13.80;;
58017;SDS011;43810;50.860;19.226;2023-09-08T04:02:10;19.17;;;12.15;;
58017;SDS011;43810;50.860;19.226;2023-09-08T04:04:36;20.20;;;13.07;;
58017;SDS011;43810;50.860;19.226;2023-09-08T04:07:02;23.30;;;12.38;;
58017;SDS011;43810;50.860;19.226;2023-09-08T04:09:28;23.15;;;13.45;;
58017;SDS011;43810;50.860;19.226;2023-09-08T04:11:54;19.38;;;12.50;;
58017;SDS011;43810;50.860;19.226;2023-09-08T04:14:20;23.92;;;13.13;;
58017;SDS011;43810;50.860;19.226;2023-09-08T04:16:48;21.33;;;13.93;;
58017;SDS011;43810;50.860;19.226;2023-09-08T04:19:14;24.10;;;14.40;;
58017;SDS011;43810;50.860;19.226;2023-09-08T04:21:40;25.30;;;13.63;;
58017;SDS011;43810;50.860;19.226;2023-09-08T04:24:06;26.63;;;14.63;;
58017;SDS011;43810;50.860;19.226;2023-09-08T04:26:35;24.17;;;14.10;;
58017;SDS011;43810;50.860;19.226;2023-09-08T04:29:01;23.90;;;14.50;;
58017;SDS011;43810;50.860;19.226;2023-09-08T04:31:27;20.58;;;13.25;;
58017;SDS011;43810;50.860;19.226;2023-09-08T04:33:53;25.45;;;13.10;;
58017;SDS011;43810;50.860;19.226;2023-09-08T04:36:19;22.85;;;13.77;;
58017;SDS011;43810;50.860;19.226;2023-09-08T04:38:45;25.77;;;12.93;;
58017;SDS011;43810;50.860;19.226;2023-09-08T04:41:11;23.38;;;13.85;;
58017;SDS011;43810;50.860;19.226;2023-09-08T04:43:37;22.63;;;14.70;;
58017;SDS011;43810;50.860;19.226;2023-09-08T04:46:02;19.25;;;12.75;;
58017;SDS011;43810;50.860;19.226;2023-09-08T04:48:29;21.63;;;13.35;;
58017;SDS011;43810;50.860;19.226;2023-09-08T04:50:56;24.42;;;13.57;;
58017;SDS011;43810;50.860;19.226;2023-09-08T04:53:22;23.33;;;13.27;;
58017;SDS011;43810;50.860;19.226;2023-09-08T04:55:48;24.52;;;14.48;;
58017;SDS011;43810;50.860;19.226;2023-09-08T04:58:14;24.30;;;14.63;;
58017;SDS011;43810;50.860;19.226;2023-09-08T05:00:40;19.67;;;13.52;;
58017;SDS011;43810;50.860;19.226;2023-09-08T05:03:06;24.67;;;14.10;;
58017;SDS011;43810;50.860;19.226;2023-09-08T05:05:32;24.33;;;14.25;;
58017;SDS011;43810;50.860;19.226;2023-09-08T05:07:58;23.35;;;13.65;;
58017;SDS011;43810;50.860;19.226;2023-09-08T05:10:23;25.73;;;13.70;;
58017;SDS011;43810;50.860;19.226;2023-09-08T05:12:50;21.55;;;13.52;;
58017;SDS011;43810;50.860;19.226;2023-09-08T05:15:16;22.30;;;13.32;;
58017;SDS011;43810;50.860;19.226;2023-09-08T05:17:43;21.13;;;12.93;;
58017;SDS011;43810;50.860;19.226;2023-09-08T05:20:09;19.90;;;13.25;;
58017;SDS011;43810;50.860;19.226;2023-09-08T05:22:35;20.83;;;12.88;;
58017;SDS011;43810;50.860;19.226;2023-09-08T05:25:02;19.83;;;12.75;;
58017;SDS011;43810;50.860;19.226;2023-09-08T05:27:28;21.67;;;13.00;;
58017;SDS011;43810;50.860;19.226;2023-09-08T05:29:54;20.45;;;12.07;;
58017;SDS011;43810;50.860;19.226;2023-09-08T05:32:20;22.30;;;13.30;;
58017;SDS011;43810;50.860;19.226;2023-09-08T05:34:45;25.20;;;13.77;;
58017;SDS011;43810;50.860;19.226;2023-09-08T05:37:11;22.13;;;13.15;;
58017;SDS011;43810;50.860;19.226;2023-09-08T05:39:37;23.05;;;13.85;;
58017;SDS011;43810;50.860;19.226;2023-09-08T05:42:03;20.58;;;12.50;;
58017;SDS011;43810;50.860;19.226;2023-09-08T05:44:29;23.92;;;14.35;;
58017;SDS011;43810;50.860;19.226;2023-09-08T05:46:55;17.80;;;12.65;;
58017;SDS011;43810;50.860;19.226;2023-09-08T05:49:21;21.88;;;13.20;;
58017;SDS011;43810;50.860;19.226;2023-09-08T05:51:46;24.65;;;14.25;;
58017;SDS011;43810;50.860;19.226;2023-09-08T05:54:12;21.85;;;13.50;;
58017;SDS011;43810;50.860;19.226;2023-09-08T05:56:39;19.85;;;12.98;;
58017;SDS011;43810;50.860;19.226;2023-09-08T05:59:04;21.60;;;13.40;;
58017;SDS011;43810;50.860;19.226;2023-09-08T06:01:30;22.88;;;12.73;;
58017;SDS011;43810;50.860;19.226;2023-09-08T06:03:58;21.13;;;12.73;;
58017;SDS011;43810;50.860;19.226;2023-09-08T06:06:24;19.75;;;12.02;;
58017;SDS011;43810;50.860;19.226;2023-09-08T06:08:50;18.05;;;10.85;;
58017;SDS011;43810;50.860;19.226;2023-09-08T06:11:16;18.48;;;11.45;;
58017;SDS011;43810;50.860;19.226;2023-09-08T06:13:42;14.27;;;10.05;;
58017;SDS011;43810;50.860;19.226;2023-09-08T06:16:08;16.58;;;10.23;;
58017;SDS011;43810;50.860;19.226;2023-09-08T06:18:34;17.13;;;10.70;;
58017;SDS011;43810;50.860;19.226;2023-09-08T06:21:08;15.63;;;9.88;;
58017;SDS011;43810;50.860;19.226;2023-09-08T06:23:34;15.52;;;10.23;;
58017;SDS011;43810;50.860;19.226;2023-09-08T06:26:00;18.30;;;10.18;;
58017;SDS011;43810;50.860;19.226;2023-09-08T06:28:29;15.45;;;9.48;;
58017;SDS011;43810;50.860;19.226;2023-09-08T06:30:55;13.27;;;8.85;;
58017;SDS011;43810;50.860;19.226;2023-09-08T06:33:21;16.88;;;9.60;;
58017;SDS011;43810;50.860;19.226;2023-09-08T06:35:50;13.82;;;9.32;;
58017;SDS011;43810;50.860;19.226;2023-09-08T06:38:16;11.80;;;8.18;;
58017;SDS011;43810;50.860;19.226;2023-09-08T06:40:42;11.82;;;8.25;;
58017;SDS011;43810;50.860;19.226;2023-09-08T06:43:07;14.27;;;8.68;;
58017;SDS011;43810;50.860;19.226;2023-09-08T06:45:33;11.90;;;7.93;;
58017;SDS011;43810;50.860;19.226;2023-09-08T06:47:59;14.35;;;8.27;;
58017;SDS011;43810;50.860;19.226;2023-09-08T06:50:25;13.80;;;8.25;;
58017;SDS011;43810;50.860;19.226;2023-09-08T06:52:51;13.80;;;8.18;;
58017;SDS011;43810;50.860;19.226;2023-09-08T06:55:18;11.55;;;7.75;;
58017;SDS011;43810;50.860;19.226;2023-09-08T06:57:45;11.95;;;7.18;;
58017;SDS011;43810;50.860;19.226;2023-09-08T07:00:12;9.82;;;7.43;;
58017;SDS011;43810;50.860;19.226;2023-09-08T07:02:39;11.52;;;7.40;;
58017;SDS011;43810;50.860;19.226;2023-09-08T07:05:05;13.40;;;7.03;;
58017;SDS011;43810;50.860;19.226;2023-09-08T07:07:34;9.88;;;6.72;;
58017;SDS011;43810;50.860;19.226;2023-09-08T07:10:01;11.30;;;7.32;;
58017;SDS011;43810;50.860;19.226;2023-09-08T07:12:28;11.70;;;6.82;;
58017;SDS011;43810;50.860;19.226;2023-09-08T07:14:54;12.57;;;7.25;;
58017;SDS011;43810;50.860;19.226;2023-09-08T07:17:20;13.52;;;6.78;;
58017;SDS011;43810;50.860;19.226;2023-09-08T07:19:46;9.93;;;6.50;;
58017;SDS011;43810;50.860;19.226;2023-09-08T07:22:11;9.77;;;6.40;;
58017;SDS011;43810;50.860;19.226;2023-09-08T07:24:38;9.93;;;6.90;;
58017;SDS011;43810;50.860;19.226;2023-09-08T07:27:03;10.85;;;6.88;;
58017;SDS011;43810;50.860;19.226;2023-09-08T07:29:30;11.55;;;7.00;;
58017;SDS011;43810;50.860;19.226;2023-09-08T07:31:55;12.65;;;7.00;;
58017;SDS011;43810;50.860;19.226;2023-09-08T07:34:21;11.32;;;6.88;;
58017;SDS011;43810;50.860;19.226;2023-09-08T07:36:47;11.52;;;6.82;;
58017;SDS011;43810;50.860;19.226;2023-09-08T07:39:13;10.98;;;6.45;;
58017;SDS011;43810;50.860;19.226;2023-09-08T07:41:38;12.68;;;6.68;;
58017;SDS011;43810;50.860;19.226;2023-09-08T07:44:06;10.77;;;6.40;;
58017;SDS011;43810;50.860;19.226;2023-09-08T07:46:32;10.20;;;5.78;;
58017;SDS011;43810;50.860;19.226;2023-09-08T07:48:58;11.35;;;6.32;;
58017;SDS011;43810;50.860;19.226;2023-09-08T07:51:25;12.95;;;5.57;;
58017;SDS011;43810;50.860;19.226;2023-09-08T07:53:52;8.82;;;5.55;;
58017;SDS011;43810;50.860;19.226;2023-09-08T07:56:18;12.65;;;6.20;;
58017;SDS011;43810;50.860;19.226;2023-09-08T07:58:45;11.05;;;6.32;;
58017;SDS011;43810;50.860;19.226;2023-09-08T08:01:12;9.93;;;5.47;;
58017;SDS011;43810;50.860;19.226;2023-09-08T08:03:38;8.68;;;5.68;;
58017;SDS011;43810;50.860;19.226;2023-09-08T08:06:04;7.93;;;5.20;;
58017;SDS011;43810;50.860;19.226;2023-09-08T08:08:31;8.98;;;5.47;;
58017;SDS011;43810;50.860;19.226;2023-09-08T08:10:57;9.65;;;5.93;;
58017;SDS011;43810;50.860;19.226;2023-09-08T08:13:24;8.82;;;5.80;;
58017;SDS011;43810;50.860;19.226;2023-09-08T08:15:49;9.82;;;5.15;;
58017;SDS011;43810;50.860;19.226;2023-09-08T08:18:16;8.68;;;5.50;;
58017;SDS011;43810;50.860;19.226;2023-09-08T08:20:42;13.10;;;5.68;;
58017;SDS011;43810;50.860;19.226;2023-09-08T08:23:08;8.00;;;5.68;;
58017;SDS011;43810;50.860;19.226;2023-09-08T08:25:33;9.38;;;5.32;;
58017;SDS011;43810;50.860;19.226;2023-09-08T08:27:59;7.18;;;4.90;;
58017;SDS011;43810;50.860;19.226;2023-09-08T08:30:26;7.97;;;5.15;;
58017;SDS011;43810;50.860;19.226;2023-09-08T08:32:53;8.05;;;5.00;;
58017;SDS011;43810;50.860;19.226;2023-09-08T08:35:19;8.18;;;4.47;;
58017;SDS011;43810;50.860;19.226;2023-09-08T08:37:45;6.68;;;4.93;;
58017;SDS011;43810;50.860;19.226;2023-09-08T08:40:11;7.85;;;4.97;;
58017;SDS011;43810;50.860;19.226;2023-09-08T08:42:38;8.82;;;4.50;;
58017;SDS011;43810;50.860;19.226;2023-09-08T08:45:05;10.57;;;5.07;;
58017;SDS011;43810;50.860;19.226;2023-09-08T08:47:31;8.00;;;5.00;;
58017;SDS011;43810;50.860;19.226;2023-09-08T08:49:57;7.78;;;4.10;;
58017;SDS011;43810;50.860;19.226;2023-09-08T08:52:25;10.93;;;5.07;;
58017;SDS011;43810;50.860;19.226;2023-09-08T08:54:54;8.60;;;4.78;;
58017;SDS011;43810;50.860;19.226;2023-09-08T08:57:20;7.47;;;4.30;;
58017;SDS011;43810;50.860;19.226;2023-09-08T08:59:47;8.18;;;4.55;;
58017;SDS011;43810;50.860;19.226;2023-09-08T09:02:16;6.78;;;4.20;;
58017;SDS011;43810;50.860;19.226;2023-09-08T09:04:43;8.45;;;4.82;;
58017;SDS011;43810;50.860;19.226;2023-09-08T09:07:09;7.80;;;4.47;;
58017;SDS011;43810;50.860;19.226;2023-09-08T09:09:36;7.45;;;3.90;;
58017;SDS011;43810;50.860;19.226;2023-09-08T09:12:02;6.70;;;4.63;;
58017;SDS011;43810;50.860;19.226;2023-09-08T09:14:31;7.97;;;4.38;;
58017;SDS011;43810;50.860;19.226;2023-09-08T09:16:58;6.25;;;4.30;;
58017;SDS011;43810;50.860;19.226;2023-09-08T09:19:25;7.07;;;4.22;;
58017;SDS011;43810;50.860;19.226;2023-09-08T09:21:53;6.07;;;3.55;;
58017;SDS011;43810;50.860;19.226;2023-09-08T09:24:30;6.38;;;4.07;;
58017;SDS011;43810;50.860;19.226;2023-09-08T09:27:00;4.82;;;3.53;;
58017;SDS011;43810;50.860;19.226;2023-09-08T09:29:27;7.60;;;4.47;;
58017;SDS011;43810;50.860;19.226;2023-09-08T09:31:58;6.35;;;4.00;;
58017;SDS011;43810;50.860;19.226;2023-09-08T09:34:29;8.95;;;3.83;;
58017;SDS011;43810;50.860;19.226;2023-09-08T09:36:55;5.68;;;4.07;;
58017;SDS011;43810;50.860;19.226;2023-09-08T09:39:21;5.20;;;3.63;;
58017;SDS011;43810;50.860;19.226;2023-09-08T09:41:49;6.20;;;4.00;;
58017;SDS011;43810;50.860;19.226;2023-09-08T09:44:22;4.30;;;3.50;;
58017;SDS011;43810;50.860;19.226;2023-09-08T09:46:51;8.07;;;4.10;;
58017;SDS011;43810;50.860;19.226;2023-09-08T09:49:17;7.30;;;4.10;;
58017;SDS011;43810;50.860;19.226;2023-09-08T09:51:45;7.30;;;3.53;;
58017;SDS011;43810;50.860;19.226;2023-09-08T09:54:12;5.57;;;3.70;;
58017;SDS011;43810;50.860;19.226;2023-09-08T09:56:39;5.53;;;3.30;;
58017;SDS011;43810;50.860;19.226;2023-09-08T09:59:09;6.53;;;3.75;;
58017;SDS011;43810;50.860;19.226;2023-09-08T10:01:37;6.80;;;3.38;;
58017;SDS011;43810;50.860;19.226;2023-09-08T10:04:03;4.85;;;3.50;;
58017;SDS011;43810;50.860;19.226;2023-09-08T10:06:34;5.75;;;3.58;;
58017;SDS011;43810;50.860;19.226;2023-09-08T10:09:02;6.95;;;4.22;;
58017;SDS011;43810;50.860;19.226;2023-09-08T10:11:34;8.07;;;4.50;;
58017;SDS011;43810;50.860;19.226;2023-09-08T10:14:07;7.28;;;4.07;;
58017;SDS011;43810;50.860;19.226;2023-09-08T10:16:36;7.30;;;3.80;;
58017;SDS011;43810;50.860;19.226;2023-09-08T10:19:07;5.70;;;3.90;;
58017;SDS011;43810;50.860;19.226;2023-09-08T10:21:58;6.97;;;3.75;;
58017;SDS011;43810;50.860;19.226;2023-09-08T10:24:26;4.70;;;3.70;;
58017;SDS011;43810;50.860;19.226;2023-09-08T10:29:28;7.57;;;3.60;;
58017;SDS011;43810;50.860;19.226;2023-09-08T10:31:55;4.70;;;3.38;;
58017;SDS011;43810;50.860;19.226;2023-09-08T10:34:23;6.07;;;3.60;;
58017;SDS011;43810;50.860;19.226;2023-09-08T10:36:51;3.47;;;3.10;;
58017;SDS011;43810;50.860;19.226;2023-09-08T10:39:27;4.93;;;3.20;;
58017;SDS011;43810;50.860;19.226;2023-09-08T10:44:41;7.07;;;3.42;;
58017;SDS011;43810;50.860;19.226;2023-09-08T10:47:09;4.70;;;3.42;;
58017;SDS011;43810;50.860;19.226;2023-09-08T10:49:35;4.85;;;3.50;;
58017;SDS011;43810;50.860;19.226;2023-09-08T10:52:08;5.45;;;3.45;;
58017;SDS011;43810;50.860;19.226;2023-09-08T10:54:46;4.65;;;3.45;;
58017;SDS011;43810;50.860;19.226;2023-09-08T10:57:14;7.53;;;4.10;;
58017;SDS011;43810;50.860;19.226;2023-09-08T10:59:53;5.55;;;3.40;;
58017;SDS011;43810;50.860;19.226;2023-09-08T11:02:39;7.63;;;3.78;;
58017;SDS011;43810;50.860;19.226;2023-09-08T11:05:13;6.07;;;3.90;;
58017;SDS011;43810;50.860;19.226;2023-09-08T11:07:41;7.60;;;4.35;;
58017;SDS011;43810;50.860;19.226;2023-09-08T11:10:09;7.90;;;3.67;;
58017;SDS011;43810;50.860;19.226;2023-09-08T11:12:35;5.07;;;3.50;;
58017;SDS011;43810;50.860;19.226;2023-09-08T11:15:05;7.45;;;3.70;;
58017;SDS011;43810;50.860;19.226;2023-09-08T11:17:34;4.60;;;3.70;;
58017;SDS011;43810;50.860;19.226;2023-09-08T11:20:04;6.03;;;3.75;;
58017;SDS011;43810;50.860;19.226;2023-09-08T11:22:36;5.35;;;3.80;;
58017;SDS011;43810;50.860;19.226;2023-09-08T11:25:03;4.45;;;3.53;;
58017;SDS011;43810;50.860;19.226;2023-09-08T11:27:33;4.63;;;3.25;;
58017;SDS011;43810;50.860;19.226;2023-09-08T11:29:59;4.95;;;3.40;;
58017;SDS011;43810;50.860;19.226;2023-09-08T11:32:31;6.40;;;3.40;;
58017;SDS011;43810;50.860;19.226;2023-09-08T11:35:01;7.57;;;3.90;;
58017;SDS011;43810;50.860;19.226;2023-09-08T11:37:34;4.75;;;3.72;;
58017;SDS011;43810;50.860;19.226;2023-09-08T11:40:04;6.97;;;4.45;;
58017;SDS011;43810;50.860;19.226;2023-09-08T11:42:34;9.90;;;5.63;;
58017;SDS011;43810;50.860;19.226;2023-09-08T11:45:00;13.68;;;7.38;;
58017;SDS011;43810;50.860;19.226;2023-09-08T11:47:29;5.45;;;3.50;;
58017;SDS011;43810;50.860;19.226;2023-09-08T11:49:56;5.53;;;3.17;;
58017;SDS011;43810;50.860;19.226;2023-09-08T11:52:23;6.05;;;3.40;;
58017;SDS011;43810;50.860;19.226;2023-09-08T11:54:49;7.40;;;4.15;;
58017;SDS011;43810;50.860;19.226;2023-09-08T11:57:16;3.95;;;3.25;;
58017;SDS011;43810;50.860;19.226;2023-09-08T11:59:43;6.85;;;3.10;;
58017;SDS011;43810;50.860;19.226;2023-09-08T12:02:13;6.40;;;3.83;;
58017;SDS011;43810;50.860;19.226;2023-09-08T12:04:39;3.65;;;2.95;;
58017;SDS011;43810;50.860;19.226;2023-09-08T12:07:11;5.05;;;3.35;;
58017;SDS011;43810;50.860;19.226;2023-09-08T12:09:40;6.22;;;3.95;;
58017;SDS011;43810;50.860;19.226;2023-09-08T12:12:10;7.10;;;3.60;;
58017;SDS011;43810;50.860;19.226;2023-09-08T12:14:43;7.03;;;3.85;;
58017;SDS011;43810;50.860;19.226;2023-09-08T12:17:09;4.93;;;3.45;;
58017;SDS011;43810;50.860;19.226;2023-09-08T12:19:35;5.20;;;3.05;;
58017;SDS011;43810;50.860;19.226;2023-09-08T12:22:04;9.77;;;5.43;;
58017;SDS011;43810;50.860;19.226;2023-09-08T12:27:22;5.32;;;3.00;;
58017;SDS011;43810;50.860;19.226;2023-09-08T12:29:55;5.38;;;3.33;;
58017;SDS011;43810;50.860;19.226;2023-09-08T12:32:23;4.18;;;3.10;;
58017;SDS011;43810;50.860;19.226;2023-09-08T12:34:50;7.07;;;3.53;;
58017;SDS011;43810;50.860;19.226;2023-09-08T12:37:21;12.57;;;3.85;;
58017;SDS011;43810;50.860;19.226;2023-09-08T12:39:55;6.78;;;3.50;;
58017;SDS011;43810;50.860;19.226;2023-09-08T12:42:21;4.72;;;3.40;;
58017;SDS011;43810;50.860;19.226;2023-09-08T12:44:51;8.20;;;3.47;;
58017;SDS011;43810;50.860;19.226;2023-09-08T12:47:17;5.30;;;3.00;;
58017;SDS011;43810;50.860;19.226;2023-09-08T12:49:43;4.05;;;3.00;;
58017;SDS011;43810;50.860;19.226;2023-09-08T12:52:09;3.85;;;2.90;;
58017;SDS011;43810;50.860;19.226;2023-09-08T12:54:35;4.13;;;3.03;;
58017;SDS011;43810;50.860;19.226;2023-09-08T12:57:01;3.90;;;3.03;;
58017;SDS011;43810;50.860;19.226;2023-09-08T12:59:27;3.97;;;2.95;;
58017;SDS011;43810;50.860;19.226;2023-09-08T13:01:54;7.28;;;3.45;;
58017;SDS011;43810;50.860;19.226;2023-09-08T13:04:20;4.85;;;3.28;;
58017;SDS011;43810;50.860;19.226;2023-09-08T13:06:48;4.13;;;2.72;;
58017;SDS011;43810;50.860;19.226;2023-09-08T13:09:14;5.97;;;3.35;;
58017;SDS011;43810;50.860;19.226;2023-09-08T13:11:41;3.28;;;2.55;;
58017;SDS011;43810;50.860;19.226;2023-09-08T13:14:09;8.90;;;3.53;;
58017;SDS011;43810;50.860;19.226;2023-09-08T13:16:35;2.95;;;2.53;;
58017;SDS011;43810;50.860;19.226;2023-09-08T13:19:01;6.40;;;3.58;;
58017;SDS011;43810;50.860;19.226;2023-09-08T13:21:27;13.93;;;7.35;;
58017;SDS011;43810;50.860;19.226;2023-09-08T13:23:53;5.07;;;3.08;;
58017;SDS011;43810;50.860;19.226;2023-09-08T13:26:19;3.88;;;3.17;;
58017;SDS011;43810;50.860;19.226;2023-09-08T13:28:44;5.72;;;2.90;;
58017;SDS011;43810;50.860;19.226;2023-09-08T13:31:10;3.50;;;3.00;;
58017;SDS011;43810;50.860;19.226;2023-09-08T13:33:36;3.80;;;3.00;;
58017;SDS011;43810;50.860;19.226;2023-09-08T13:36:02;3.45;;;2.60;;
58017;SDS011;43810;50.860;19.226;2023-09-08T13:38:28;6.93;;;2.78;;
58017;SDS011;43810;50.860;19.226;2023-09-08T13:40:54;3.15;;;2.80;;
58017;SDS011;43810;50.860;19.226;2023-09-08T13:43:19;3.50;;;2.95;;
58017;SDS011;43810;50.860;19.226;2023-09-08T13:45:46;5.75;;;3.40;;
58017;SDS011;43810;50.860;19.226;2023-09-08T13:48:11;5.30;;;2.78;;
58017;SDS011;43810;50.860;19.226;2023-09-08T13:50:37;5.93;;;3.00;;
58017;SDS011;43810;50.860;19.226;2023-09-08T13:53:05;5.60;;;2.88;;
58017;SDS011;43810;50.860;19.226;2023-09-08T13:55:31;4.53;;;2.95;;
58017;SDS011;43810;50.860;19.226;2023-09-08T13:57:56;4.45;;;3.10;;
58017;SDS011;43810;50.860;19.226;2023-09-08T14:00:22;4.40;;;3.22;;
58017;SDS011;43810;50.860;19.226;2023-09-08T14:02:48;3.97;;;2.95;;
58017;SDS011;43810;50.860;19.226;2023-09-08T14:05:14;8.88;;;3.05;;
58017;SDS011;43810;50.860;19.226;2023-09-08T14:07:39;5.93;;;3.17;;
58017;SDS011;43810;50.860;19.226;2023-09-08T14:10:05;5.55;;;4.13;;
58017;SDS011;43810;50.860;19.226;2023-09-08T14:12:35;4.53;;;3.33;;
58017;SDS011;43810;50.860;19.226;2023-09-08T14:15:02;5.85;;;4.00;;
58017;SDS011;43810;50.860;19.226;2023-09-08T14:17:29;4.95;;;4.28;;
58017;SDS011;43810;50.860;19.226;2023-09-08T14:19:55;4.18;;;3.53;;
58017;SDS011;43810;50.860;19.226;2023-09-08T14:22:21;5.30;;;4.05;;
58017;SDS011;43810;50.860;19.226;2023-09-08T14:24:47;4.68;;;3.15;;
58017;SDS011;43810;50.860;19.226;2023-09-08T14:27:12;4.93;;;3.60;;
58017;SDS011;43810;50.860;19.226;2023-09-08T14:29:38;4.40;;;3.63;;
58017;SDS011;43810;50.860;19.226;2023-09-08T14:32:04;4.80;;;3.58;;